.
WxDataArchive / Data Records for 2013-04-02
2013-04-01 April 2013 2013-04-03

Data Records for Tuesday, 02 April 2013

Time	Temp	Chill	HIndex	Humid	Dewpt	 Wind 	HiWind	WindDir	Rain 	Barom 
-----	----	-----	------	-----	-----	------	------	-------	-----	----- 
00:00	25.8	25.8	25.8	55	11.9	0	0	---	0.00	30.153 
00:05	25.7	25.7	25.7	56	12.2	0	0	---	0.00	30.153 
00:10	25.4	25.4	25.4	56	11.9	0	0	---	0.00	30.153 
00:15	25.3	25.3	25.3	56	11.8	0	0	---	0.00	30.152 
00:20	25.1	25.1	25.1	57	12.0	0	0	---	0.00	30.152 
00:25	24.8	24.8	24.8	57	11.8	0	0	---	0.00	30.152 
00:30	24.7	24.7	24.7	58	12.1	0	0	---	0.00	30.152 
00:35	24.4	24.4	24.4	58	11.8	0	0	---	0.00	30.152 
00:40	24.1	24.1	24.1	59	11.9	0	0	---	0.00	30.152 
00:45	24.1	24.1	24.1	60	12.3	0	0	---	0.00	30.152 
00:50	23.9	23.9	23.9	61	12.4	0	0	---	0.00	30.152 
00:55	24.1	24.1	24.1	62	13.0	0	0	---	0.00	30.152 
01:00	24.1	24.1	24.1	62	13.0	0	0	---	0.00	30.152 
01:05	24.1	24.1	24.1	62	13.0	0	0	---	0.00	30.152 
01:10	24.1	24.1	24.1	63	13.4	0	0	---	0.00	30.152 
01:15	23.9	23.9	23.9	63	13.2	0	0	---	0.00	30.154 
01:20	23.8	23.8	23.8	63	13.1	0	0	---	0.00	30.154 
01:25	23.6	23.6	23.6	64	13.2	0	0	---	0.00	30.154 
01:30	23.5	23.5	23.5	65	13.5	0	0	---	0.00	30.152 
01:35	23.3	23.3	23.3	65	13.3	0	0	---	0.00	30.152 
01:40	23.2	23.2	23.2	65	13.2	0	0	---	0.00	30.152 
01:45	23.0	23.0	23.0	65	13.0	0	0	---	0.00	30.155 
01:50	22.9	22.9	22.9	65	12.9	0	0	---	0.00	30.155 
01:55	22.7	22.7	22.7	66	13.1	0	0	---	0.00	30.155 
02:00	22.7	22.7	22.7	67	13.4	0	0	---	0.00	30.154 
02:05	22.5	22.5	22.5	67	13.2	0	0	---	0.00	30.154 
02:10	22.5	22.5	22.5	67	13.2	0	0	---	0.00	30.154 
02:15	22.4	22.4	22.4	68	13.5	0	0	---	0.00	30.154 
02:20	22.4	22.4	22.4	68	13.5	0	0	---	0.00	30.154 
02:25	22.2	22.2	22.2	69	13.6	0	0	---	0.00	30.154 
02:30	22.2	22.2	22.2	69	13.6	0	0	---	0.00	30.156 
02:35	22.1	22.1	22.1	69	13.5	0	0	---	0.00	30.156 
02:40	21.9	21.9	21.9	70	13.6	0	0	---	0.00	30.156 
02:45	21.9	21.9	21.9	70	13.6	0	0	---	0.00	30.159 
02:50	21.8	21.8	21.8	71	13.9	0	0	---	0.00	30.159 
02:55	21.6	21.6	21.6	71	13.7	0	0	---	0.00	30.159 
03:00	21.4	21.4	21.4	71	13.5	0	0	---	0.00	30.161 
03:05	21.3	21.3	21.3	72	13.7	0	0	---	0.00	30.161 
03:10	21.1	21.1	21.1	72	13.5	0	0	---	0.00	30.161 
03:15	21.1	21.1	21.1	72	13.5	0	0	---	0.00	30.160 
03:20	21.0	21.0	21.0	73	13.7	0	0	---	0.00	30.160 
03:25	20.8	20.8	20.8	73	13.5	0	0	---	0.00	30.160 
03:30	20.8	20.8	20.8	73	13.5	0	0	---	0.00	30.157 
03:35	20.6	20.6	20.6	73	13.3	0	0	---	0.00	30.157 
03:40	20.6	20.6	20.6	73	13.3	0	0	---	0.00	30.157 
03:45	20.5	20.5	20.5	74	13.6	0	0	---	0.00	30.156 
03:50	20.5	20.5	20.5	74	13.6	0	0	---	0.00	30.156 
03:55	20.3	20.3	20.3	74	13.4	0	0	---	0.00	30.156 
04:00	20.3	20.3	20.3	74	13.4	0	0	---	0.00	30.162 
04:05	20.2	20.2	20.2	75	13.6	0	0	---	0.00	30.162 
04:10	20.2	20.2	20.2	75	13.6	0	0	---	0.00	30.162 
04:15	20.2	20.2	20.2	75	13.6	0	0	---	0.00	30.165 
04:20	20.3	20.3	20.3	76	14.0	0	0	---	0.00	30.165 
04:25	20.3	20.3	20.3	76	14.0	0	0	---	0.00	30.165 
04:30	20.5	20.5	20.5	76	14.2	0	0	---	0.00	30.164 
04:35	20.5	20.5	20.5	77	14.5	0	0	---	0.00	30.164 
04:40	20.6	20.6	20.6	77	14.6	0	0	---	0.00	30.164 
04:45	20.8	20.8	20.8	77	14.7	0	1	338	0.00	30.169 
04:50	21.0	21.0	21.0	77	14.9	0	0	---	0.00	30.169 
04:55	21.0	21.0	21.0	77	14.9	0	0	---	0.00	30.169 
05:00	21.0	21.0	21.0	77	14.9	0	0	---	0.00	30.169 
05:05	20.8	20.8	20.8	77	14.7	0	0	---	0.00	30.169 
05:10	20.8	20.8	20.8	76	14.5	0	0	---	0.00	30.169 
05:15	20.6	20.6	20.6	76	14.3	0	0	---	0.00	30.172 
05:20	20.6	20.6	20.6	76	14.3	0	0	---	0.00	30.172 
05:25	20.5	20.5	20.5	77	14.5	0	0	---	0.00	30.172 
05:30	20.5	20.5	20.5	77	14.5	0	0	---	0.00	30.173 
05:35	20.3	20.3	20.3	77	14.3	0	0	---	0.00	30.173 
05:40	20.2	20.2	20.2	77	14.2	0	0	---	0.00	30.173 
05:45	20.0	20.0	20.0	77	14.0	0	0	---	0.00	30.175 
05:50	19.9	19.9	19.9	77	13.9	0	0	---	0.00	30.175 
05:55	19.7	19.7	19.7	77	13.7	0	0	---	0.00	30.175 
06:00	19.5	19.5	19.5	77	13.5	0	0	---	0.00	30.185 
06:05	19.4	19.4	19.4	77	13.4	0	0	---	0.00	30.185 
06:10	19.4	19.4	19.4	78	13.7	0	0	---	0.00	30.185 
06:15	19.2	19.2	19.2	78	13.5	0	0	---	0.00	30.190 
06:20	19.2	19.2	19.2	78	13.5	0	0	---	0.00	30.190 
06:25	19.1	19.1	19.1	78	13.4	0	0	---	0.00	30.190 
06:30	18.9	18.9	18.9	79	13.5	0	0	---	0.00	30.197 
06:35	18.9	18.9	18.9	79	13.5	0	0	---	0.00	30.197 
06:40	18.8	18.8	18.8	79	13.4	0	0	---	0.00	30.197 
06:45	18.8	18.8	18.8	79	13.4	0	0	---	0.00	30.202 
06:50	18.8	18.8	18.8	80	13.7	0	0	---	0.00	30.202 
06:55	18.9	18.9	18.9	80	13.8	0	0	---	0.00	30.202 
07:00	19.1	19.1	19.1	80	14.0	0	0	---	0.00	30.205 
07:05	19.1	19.1	19.1	80	14.0	0	0	---	0.00	30.205 
07:10	19.1	19.1	19.1	80	14.0	0	0	---	0.00	30.205 
07:15	19.2	19.2	19.2	80	14.1	0	0	---	0.00	30.214 
07:20	19.2	19.2	19.2	80	14.1	0	0	---	0.00	30.214 
07:25	19.2	19.2	19.2	80	14.1	0	0	---	0.00	30.214 
07:30	19.4	19.4	19.4	80	14.3	0	0	---	0.00	30.221 
07:35	19.4	19.4	19.4	80	14.3	0	0	---	0.00	30.221 
07:40	19.5	19.5	19.5	80	14.4	0	0	---	0.00	30.221 
07:45	19.5	19.5	19.5	80	14.4	0	0	---	0.00	30.224 
07:50	19.7	19.7	19.7	80	14.6	0	0	---	0.00	30.224 
07:55	20.0	20.0	20.0	80	14.8	0	0	---	0.00	30.224 
08:00	20.6	20.6	20.6	81	15.7	0	0	---	0.00	30.229 
08:05	21.3	21.3	21.3	81	16.4	0	0	---	0.00	30.229 
08:10	21.9	21.9	21.9	80	16.7	0	0	---	0.00	30.229 
08:15	22.7	22.7	22.7	79	17.2	0	0	---	0.00	30.236 
08:20	23.5	23.5	23.5	78	17.7	0	0	---	0.00	30.236 
08:25	24.2	24.2	24.2	77	18.1	0	1	338	0.00	30.236 
08:30	25.0	25.0	25.0	75	18.2	0	1	338	0.00	30.238 
08:35	25.8	25.8	25.8	73	18.4	0	2	315	0.00	30.238 
08:40	26.4	26.4	26.4	72	18.6	0	2	315	0.00	30.238 
08:45	27.0	27.0	27.0	70	18.5	0	2	315	0.00	30.242 
08:50	27.6	27.6	27.6	68	18.4	0	1	315	0.00	30.242 
08:55	28.1	28.1	28.1	66	18.2	1	2	315	0.00	30.242 
09:00	28.5	28.5	28.5	65	18.3	1	2	315	0.00	30.246 
09:05	29.0	29.0	29.0	65	18.7	0	2	315	0.00	30.246 
09:10	29.4	29.4	29.4	63	18.4	1	2	315	0.00	30.246 
09:15	29.8	29.8	29.8	62	18.4	0	2	315	0.00	30.248 
09:20	30.3	30.3	30.3	61	18.5	1	2	315	0.00	30.248 
09:25	30.6	30.6	30.6	61	18.8	0	2	270	0.00	30.248 
09:30	31.0	31.0	31.0	60	18.8	0	2	270	0.00	30.249 
09:35	31.6	31.6	31.6	59	18.9	0	2	270	0.00	30.249 
09:40	31.9	31.9	31.9	57	18.4	1	3	315	0.00	30.249 
09:45	31.9	31.9	31.9	56	18.0	1	3	248	0.00	30.250 
09:50	32.4	32.4	32.4	55	18.1	1	3	248	0.00	30.250 
09:55	32.4	32.4	32.4	49	15.4	1	3	315	0.00	30.250 
10:00	32.5	32.5	32.5	52	16.9	1	3	315	0.00	30.251 
10:05	33.1	33.1	33.1	50	16.5	1	2	315	0.00	30.251 
10:10	33.5	33.5	33.5	50	16.9	1	4	248	0.00	30.251 
10:15	33.5	33.5	33.5	50	16.9	1	6	338	0.00	30.260 
10:20	33.5	33.5	33.5	50	16.9	2	5	248	0.00	30.260 
10:25	34.4	34.4	34.4	51	18.2	0	2	315	0.00	30.260 
10:30	34.7	34.7	34.7	48	17.0	1	5	338	0.00	30.256 
10:35	34.7	34.7	34.7	48	17.0	1	3	338	0.00	30.256 
10:40	35.2	35.2	35.2	47	17.0	2	4	292	0.00	30.256 
10:45	35.3	35.3	35.3	46	16.6	2	4	248	0.00	30.256 
10:50	34.6	34.6	34.6	44	15.0	1	3	248	0.00	30.256 
10:55	34.7	34.7	34.7	46	16.1	1	5	338	0.00	30.256 
11:00	35.0	35.0	35.0	47	16.8	1	4	270	0.00	30.259 
11:05	34.7	34.7	34.7	44	15.0	2	6	338	0.00	30.259 
11:10	34.9	34.9	34.9	44	15.2	2	5	270	0.00	30.259 
11:15	35.5	35.5	35.5	45	16.3	2	6	248	0.00	30.261 
11:20	36.0	36.0	36.0	45	16.7	1	3	315	0.00	30.261 
11:25	36.6	36.6	36.6	44	16.8	1	3	292	0.00	30.261 
11:30	36.6	36.6	36.6	43	16.2	1	3	315	0.00	30.260 
11:35	36.5	36.5	36.5	43	16.2	2	4	248	0.00	30.260 
11:40	36.8	36.8	36.8	42	15.9	2	4	248	0.00	30.260 
11:45	36.2	36.2	36.2	42	15.3	1	5	315	0.00	30.260 
11:50	35.6	35.6	35.6	42	14.8	2	4	270	0.00	30.260 
11:55	36.0	36.0	36.0	43	15.7	1	4	248	0.00	30.260 
12:00	36.0	36.0	36.0	41	14.6	2	9	315	0.00	30.259 
12:05	36.9	36.9	36.9	42	16.0	1	4	248	0.00	30.259 
12:10	36.6	36.6	36.6	40	14.6	2	9	270	0.00	30.259 
12:15	37.2	37.2	37.2	41	15.7	1	3	248	0.00	30.253 
12:20	37.8	37.8	37.8	39	15.1	2	7	270	0.00	30.253 
12:25	37.6	37.6	37.6	40	15.5	1	3	248	0.00	30.253 
12:30	37.8	37.8	37.8	40	15.7	2	5	248	0.00	30.252 
12:35	38.3	38.3	38.3	38	14.9	1	3	270	0.00	30.252 
12:40	37.8	37.8	37.8	36	13.3	2	5	248	0.00	30.252 
12:45	38.5	38.5	38.5	39	15.7	1	4	248	0.00	30.247 
12:50	38.9	38.9	38.9	35	13.6	2	5	248	0.00	30.247 
12:55	38.5	38.5	38.5	38	15.1	2	5	270	0.00	30.247 
13:00	39.3	39.3	39.3	39	16.4	2	6	270	0.00	30.246 
13:05	39.9	39.9	39.9	38	16.4	2	5	270	0.00	30.246 
13:10	40.2	40.2	40.2	35	14.8	2	6	248	0.00	30.246 
13:15	39.6	39.6	39.6	35	14.2	3	7	248	0.00	30.240 
13:20	39.2	39.2	39.2	35	13.9	2	5	248	0.00	30.240 
13:25	39.3	39.3	39.3	35	14.0	3	8	270	0.00	30.240 
13:30	38.9	38.9	38.9	35	13.6	2	6	292	0.00	30.235 
13:35	39.5	39.5	39.5	36	14.8	2	6	248	0.00	30.235 
13:40	39.6	39.6	39.6	37	15.5	2	7	248	0.00	30.235 
13:45	40.5	40.5	40.5	35	15.0	3	10	248	0.00	30.231 
13:50	39.8	39.8	39.8	36	15.0	2	10	338	0.00	30.231 
13:55	40.9	40.9	40.9	34	14.7	2	5	315	0.00	30.231 
14:00	40.8	40.8	40.8	33	14.0	2	7	292	0.00	30.226 
14:05	40.1	40.1	40.1	31	11.9	3	7	338	0.00	30.226 
14:10	39.8	39.8	39.8	36	15.0	1	5	248	0.00	30.226 
14:15	41.1	41.1	41.1	35	15.6	2	5	292	0.00	30.223 
14:20	41.8	41.8	41.8	32	14.1	2	6	292	0.00	30.223 
14:25	41.5	41.5	41.5	31	13.1	2	5	225	0.00	30.223 
14:30	41.9	41.9	41.9	33	14.9	3	6	292	0.00	30.215 
14:35	41.8	41.8	41.8	30	12.7	3	6	292	0.00	30.215 
14:40	41.6	41.6	41.6	31	13.2	2	5	270	0.00	30.215 
14:45	42.1	42.1	42.1	30	12.9	3	6	248	0.00	30.215 
14:50	41.5	41.5	41.5	31	13.1	2	6	270	0.00	30.215 
14:55	41.8	41.8	41.8	31	13.4	3	9	270	0.00	30.215 
15:00	41.9	41.9	41.9	31	13.5	2	6	270	0.00	30.211 
15:05	41.8	41.8	41.8	31	13.4	2	5	248	0.00	30.211 
15:10	41.8	41.8	41.8	28	11.1	2	4	338	0.00	30.211 
15:15	41.8	41.8	41.8	29	11.9	3	6	270	0.00	30.208 
15:20	42.2	42.2	42.2	28	11.5	3	5	270	0.00	30.208 
15:25	42.3	42.3	42.3	30	13.1	2	6	248	0.00	30.208 
15:30	42.9	42.9	42.9	28	12.1	2	6	315	0.00	30.198 
15:35	43.1	43.1	43.1	27	11.4	2	6	248	0.00	30.198 
15:40	42.8	42.8	42.8	27	11.2	3	6	248	0.00	30.198 
15:45	42.2	42.2	42.2	27	10.6	2	4	315	0.00	30.197 
15:50	42.6	42.6	42.6	28	11.8	2	5	270	0.00	30.197 
15:55	42.8	42.8	42.8	27	11.2	3	7	315	0.00	30.197 
16:00	43.3	43.3	43.3	28	12.4	3	5	248	0.00	30.193 
16:05	42.8	40.6	42.8	26	10.3	4	10	270	0.00	30.193 
16:10	42.1	42.1	42.1	28	11.4	2	6	315	0.00	30.193 
16:15	42.5	42.5	42.5	28	11.7	2	5	270	0.00	30.188 
16:20	42.5	40.2	42.5	25	9.2	4	10	338	0.00	30.188 
16:25	42.6	42.6	42.6	26	10.1	2	4	248	0.00	30.188 
16:30	42.8	42.8	42.8	27	11.2	3	7	270	0.00	30.185 
16:35	42.3	42.3	42.3	26	9.9	3	8	315	0.00	30.185 
16:40	42.8	42.8	42.8	26	10.3	2	7	270	0.00	30.185 
16:45	43.1	43.1	43.1	26	10.6	2	4	248	0.00	30.188 
16:50	43.2	43.2	43.2	26	10.7	3	5	270	0.00	30.188 
16:55	42.6	42.6	42.6	25	9.3	2	5	248	0.00	30.188 
17:00	42.5	42.5	42.5	25	9.2	2	7	248	0.00	30.185 
17:05	42.5	42.5	42.5	24	8.3	2	9	315	0.00	30.185 
17:10	42.5	42.5	42.5	23	7.3	3	12	315	0.00	30.185 
17:15	42.2	39.9	42.2	23	7.1	4	7	292	0.00	30.199 
17:20	42.3	42.3	42.3	22	6.2	3	7	270	0.00	30.199 
17:25	42.2	42.2	42.2	22	6.1	3	6	270	0.00	30.199 
17:30	42.1	42.1	42.1	23	7.0	1	4	315	0.00	30.200 
17:35	42.3	42.3	42.3	23	7.2	3	6	292	0.00	30.200 
17:40	42.3	42.3	42.3	24	8.1	2	5	270	0.00	30.200 
17:45	42.1	42.1	42.1	21	5.0	3	8	270	0.00	30.206 
17:50	41.8	39.4	41.8	22	5.8	4	9	270	0.00	30.206 
17:55	41.8	41.8	41.8	22	5.8	3	10	270	0.00	30.206 
18:00	41.5	41.5	41.5	21	4.5	3	8	315	0.00	30.214 
18:05	41.3	41.3	41.3	21	4.3	3	7	270	0.00	30.214 
18:10	41.2	41.2	41.2	22	5.3	3	9	315	0.00	30.214 
18:15	41.1	41.1	41.1	23	6.2	3	6	270	0.00	30.218 
18:20	41.1	41.1	41.1	22	5.2	2	5	292	0.00	30.218 
18:25	40.9	40.9	40.9	22	5.0	2	6	315	0.00	30.218 
18:30	40.8	40.8	40.8	20	2.9	3	6	248	0.00	30.223 
18:35	40.6	40.6	40.6	20	2.7	3	6	248	0.00	30.223 
18:40	40.5	40.5	40.5	21	3.7	2	5	270	0.00	30.223 
18:45	40.3	40.3	40.3	22	4.5	2	5	315	0.00	30.232 
18:50	40.2	40.2	40.2	23	5.4	2	9	292	0.00	30.232 
18:55	40.1	40.1	40.1	22	4.3	3	7	270	0.00	30.232 
19:00	39.8	39.8	39.8	22	4.1	2	5	315	0.00	30.235 
19:05	39.5	39.5	39.5	22	3.8	2	6	248	0.00	30.235 
19:10	39.2	39.2	39.2	22	3.6	3	6	338	0.00	30.235 
19:15	38.8	38.8	38.8	22	3.3	2	6	338	0.00	30.234 
19:20	38.6	38.6	38.6	23	4.0	3	9	338	0.00	30.234 
19:25	38.3	38.3	38.3	23	3.8	2	6	292	0.00	30.234 
19:30	38.2	38.2	38.2	24	4.6	2	4	338	0.00	30.240 
19:35	37.9	37.9	37.9	24	4.4	2	7	315	0.00	30.240 
19:40	37.6	37.6	37.6	25	5.0	1	7	0	0.00	30.240 
19:45	37.5	37.5	37.5	25	4.9	1	6	270	0.00	30.243 
19:50	37.2	37.2	37.2	25	4.7	1	6	338	0.00	30.243 
19:55	36.9	36.9	36.9	25	4.4	1	5	338	0.00	30.243 
20:00	36.6	36.6	36.6	27	5.8	1	6	292	0.00	30.244 
20:05	36.5	36.5	36.5	26	4.9	1	5	315	0.00	30.244 
20:10	36.3	36.3	36.3	27	5.6	1	6	315	0.00	30.244 
20:15	36.0	36.0	36.0	28	6.1	0	4	315	0.00	30.238 
20:20	35.8	35.8	35.8	27	5.1	1	3	0	0.00	30.238 
20:25	35.6	35.6	35.6	27	5.0	0	1	0	0.00	30.238 
20:30	35.3	35.3	35.3	27	4.7	0	1	0	0.00	30.245 
20:35	35.0	35.0	35.0	28	5.2	0	2	0	0.00	30.245 
20:40	34.9	34.9	34.9	28	5.1	0	2	0	0.00	30.245 
20:45	34.6	34.6	34.6	29	5.6	0	1	0	0.00	30.247 
20:50	34.4	34.4	34.4	28	4.7	0	1	0	0.00	30.247 
20:55	34.3	34.3	34.3	29	5.4	0	1	0	0.00	30.247 
21:00	34.0	34.0	34.0	30	5.9	0	0	---	0.00	30.254 
21:05	33.7	33.7	33.7	29	4.9	0	1	0	0.00	30.254 
21:10	33.5	33.5	33.5	30	5.4	0	0	---	0.00	30.254 
21:15	33.2	33.2	33.2	30	5.2	0	0	---	0.00	30.258 
21:20	33.1	33.1	33.1	30	5.1	0	0	---	0.00	30.258 
21:25	32.8	32.8	32.8	30	4.8	0	0	---	0.00	30.258 
21:30	32.5	32.5	32.5	31	5.3	0	0	---	0.00	30.260 
21:35	32.2	32.2	32.2	31	5.0	0	0	---	0.00	30.260 
21:40	31.9	31.9	31.9	32	5.4	0	0	---	0.00	30.260 
21:45	31.6	31.6	31.6	32	5.2	0	0	---	0.00	30.267 
21:50	31.2	31.2	31.2	32	4.8	0	0	---	0.00	30.267 
21:55	30.9	30.9	30.9	33	5.2	0	0	---	0.00	30.267 
22:00	30.6	30.6	30.6	35	6.2	0	0	---	0.00	30.275 
22:05	30.3	30.3	30.3	35	6.0	0	0	---	0.00	30.275 
22:10	29.8	29.8	29.8	36	6.1	0	0	---	0.00	30.275 
22:15	29.5	29.5	29.5	37	6.5	0	0	---	0.00	30.278 
22:20	29.3	29.3	29.3	38	6.9	0	0	---	0.00	30.278 
22:25	29.0	29.0	29.0	38	6.6	0	0	---	0.00	30.278 
22:30	28.7	28.7	28.7	39	6.9	0	0	---	0.00	30.281 
22:35	28.5	28.5	28.5	40	7.3	0	0	---	0.00	30.281 
22:40	28.2	28.2	28.2	43	8.6	0	0	---	0.00	30.281 
22:45	27.9	27.9	27.9	42	7.8	0	0	---	0.00	30.291 
22:50	27.6	27.6	27.6	43	8.1	0	0	---	0.00	30.291 
22:55	27.5	27.5	27.5	43	8.0	0	0	---	0.00	30.291 
23:00	27.2	27.2	27.2	43	7.7	0	0	---	0.00	30.293 
23:05	27.0	27.0	27.0	44	8.0	0	0	---	0.00	30.293 
23:10	27.0	27.0	27.0	44	8.0	0	0	---	0.00	30.293 
23:15	27.0	27.0	27.0	45	8.5	0	0	---	0.00	30.294 
23:20	27.0	27.0	27.0	45	8.5	0	0	---	0.00	30.294 
23:25	27.0	27.0	27.0	46	9.0	0	0	---	0.00	30.294 
23:30	27.0	27.0	27.0	46	9.0	0	0	---	0.00	30.294 
23:35	27.0	27.0	27.0	46	9.0	0	0	---	0.00	30.294 
23:40	26.9	26.9	26.9	47	9.4	0	0	---	0.00	30.294 
23:45	26.7	26.7	26.7	47	9.2	0	0	---	0.00	30.294 
23:50	26.7	26.7	26.7	48	9.7	0	0	---	0.00	30.294 
23:55	26.6	26.6	26.6	48	9.6	0	0	---	0.00	30.294 

CoCoRaHS
IN-AL-39
A2 Web Hosting
Creative Commons License
GoDaddy
search engine by freefind advanced

loaded 2018-11-15 17:47:29 • last modified 2010-11-18 10:43:29
Privacy PolicyDisclaimer
• wx.awcolley.com is powered by PmWiki v.2002016 •
• all content (unless otherwise noted) © 2018 A W Colley